Time;durP1;ratioP1;P1;durP2;ratioP2;P2;SDS_P1;SDS_P2;PMS_P1;PMS_P2;Temp;Humidity;BMP_temperature;BMP_pressure;BME280_temperature;BME280_humidity;BME280_pressure;Samples;Min_cycle;Max_cycle;Signal;HPM_P1;HPM_P2
2023/06/02 00:00:25;;;;;;;2.80;1.10;;;13.90;99.90;;;;;;5055943;28;20663;-63
2023/06/02 00:02:55;;;;;;;0.82;0.80;;;13.80;99.90;;;;;;5057141;28;20762;-63
2023/06/02 00:05:25;;;;;;;1.58;0.90;;;13.80;99.90;;;;;;5056580;28;20250;-63
2023/06/02 00:07:55;;;;;;;1.73;1.05;;;13.70;99.90;;;;;;5056936;28;20199;-63
2023/06/02 00:10:23;;;;;;;1.40;1.25;;;13.80;99.90;;;;;;5056245;28;20270;-63
2023/06/02 00:12:51;;;;;;;1.30;1.20;;;13.70;99.90;;;;;;5056863;28;20212;-62
2023/06/02 00:15:19;;;;;;;1.65;1.40;;;13.70;99.90;;;;;;5054346;28;20745;-63
2023/06/02 00:17:47;;;;;;;1.25;1.13;;;13.60;99.90;;;;;;5053382;28;20576;-63
2023/06/02 00:20:17;;;;;;;1.27;0.98;;;13.70;99.90;;;;;;5052728;28;20350;-63
2023/06/02 00:22:46;;;;;;;1.48;0.93;;;13.70;99.90;;;;;;5053405;28;20208;-63
2023/06/02 00:25:14;;;;;;;1.40;1.10;;;13.70;99.90;;;;;;5053084;28;20208;-63
2023/06/02 00:27:42;;;;;;;2.05;1.30;;;13.60;99.90;;;;;;5053529;28;20655;-63
2023/06/02 00:30:11;;;;;;;2.05;1.40;;;13.50;99.90;;;;;;5052895;28;20289;-63
2023/06/02 00:32:39;;;;;;;1.20;1.10;;;13.50;99.90;;;;;;5052290;28;20208;-63
2023/06/02 00:35:08;;;;;;;2.00;1.38;;;13.50;99.90;;;;;;5053089;28;20286;-63
2023/06/02 00:37:37;;;;;;;1.50;1.30;;;13.50;99.90;;;;;;5045302;28;20212;-63
2023/06/02 00:40:07;;;;;;;1.02;0.90;;;13.50;99.90;;;;;;5052789;28;20230;-63
2023/06/02 00:42:35;;;;;;;1.80;1.38;;;13.40;99.90;;;;;;5045147;28;20662;-63
2023/06/02 00:45:04;;;;;;;1.10;1.00;;;13.40;99.90;;;;;;5053000;28;20675;-63
2023/06/02 00:47:32;;;;;;;1.40;1.00;;;13.20;99.90;;;;;;5052904;28;20200;-63
2023/06/02 00:50:00;;;;;;;1.60;1.50;;;13.10;99.90;;;;;;5051465;28;20223;-63
2023/06/02 00:52:29;;;;;;;1.05;0.93;;;13.10;99.90;;;;;;5052678;28;20215;-63
2023/06/02 00:54:59;;;;;;;1.35;1.10;;;13.00;99.90;;;;;;5052586;28;20219;-63
2023/06/02 00:57:28;;;;;;;1.27;1.02;;;12.90;99.90;;;;;;5052739;28;20602;-62
2023/06/02 00:59:57;;;;;;;1.65;1.20;;;12.90;99.90;;;;;;5052769;28;20303;-62
2023/06/02 01:02:25;;;;;;;1.48;1.17;;;12.90;99.90;;;;;;5052615;28;20207;-62
2023/06/02 01:04:57;;;;;;;1.10;1.00;;;12.90;99.90;;;;;;5052639;28;20210;-63
2023/06/02 01:07:27;;;;;;;1.38;1.13;;;12.80;99.90;;;;;;5051259;28;20196;-63
2023/06/02 01:09:59;;;;;;;1.98;1.45;;;12.80;99.90;;;;;;5052651;28;20204;-62
2023/06/02 01:12:28;;;;;;;1.20;0.95;;;12.80;99.90;;;;;;5052414;28;20732;-62
2023/06/02 01:14:56;;;;;;;2.45;1.40;;;12.90;99.90;;;;;;5052343;28;20626;-63
2023/06/02 01:17:30;;;;;;;1.30;1.20;;;13.10;99.90;;;;;;5052272;28;20215;-62
2023/06/02 01:20:04;;;;;;;1.30;1.20;;;13.00;99.90;;;;;;5051965;28;20280;-62
2023/06/02 01:22:40;;;;;;;1.42;1.30;;;13.00;99.90;;;;;;5052157;28;20700;-62
2023/06/02 01:25:23;;;;;;;0.90;0.80;;;12.90;99.90;;;;;;5050842;28;20211;-62
2023/06/02 01:27:51;;;;;;;1.05;0.95;;;12.90;99.90;;;;;;5044775;28;20204;-63
2023/06/02 01:30:20;;;;;;;1.40;1.00;;;12.90;99.90;;;;;;5051803;28;20223;-63
2023/06/02 01:32:55;;;;;;;1.65;1.33;;;13.10;99.90;;;;;;5052301;28;20330;-63
2023/06/02 01:35:28;;;;;;;1.00;0.80;;;13.30;99.90;;;;;;5052040;28;20253;-63
2023/06/02 01:37:59;;;;;;;1.23;0.98;;;13.30;99.90;;;;;;5052267;28;20270;-63
2023/06/02 01:40:29;;;;;;;1.20;0.90;;;13.20;99.90;;;;;;5049999;28;20225;-63
2023/06/02 01:43:00;;;;;;;1.25;1.15;;;13.10;99.90;;;;;;5052029;28;20222;-63
2023/06/02 01:45:48;;;;;;;0.98;0.98;;;12.80;99.90;;;;;;5044753;28;20631;-63
2023/06/02 01:48:17;;;;;;;1.25;0.90;;;12.80;99.90;;;;;;5051627;28;20211;-64
2023/06/02 01:50:45;;;;;;;1.35;1.05;;;12.70;99.90;;;;;;5051668;28;20222;-63
2023/06/02 01:53:13;;;;;;;1.55;1.15;;;12.70;99.90;;;;;;5051724;28;20204;-63
2023/06/02 01:55:42;;;;;;;1.25;1.00;;;12.80;99.90;;;;;;5051530;28;20242;-63
2023/06/02 01:58:10;;;;;;;2.25;1.55;;;12.90;99.90;;;;;;5050143;28;20215;-63
2023/06/02 02:00:38;;;;;;;1.33;1.20;;;12.80;99.90;;;;;;5051057;28;20723;-63
2023/06/02 02:03:06;;;;;;;1.20;1.00;;;12.80;99.90;;;;;;5051928;28;20748;-63
2023/06/02 02:05:34;;;;;;;1.10;1.00;;;12.80;99.90;;;;;;5051353;28;20220;-62
2023/06/02 02:08:02;;;;;;;1.10;1.00;;;12.70;99.90;;;;;;5051628;28;20670;-63
2023/06/02 02:10:31;;;;;;;1.38;1.10;;;12.70;99.90;;;;;;5051120;28;20234;-63
2023/06/02 02:13:00;;;;;;;1.33;0.80;;;12.80;99.90;;;;;;5051495;28;20671;-63
2023/06/02 02:15:28;;;;;;;1.10;1.00;;;12.90;99.90;;;;;;5049214;28;20641;-62
2023/06/02 02:17:56;;;;;;;2.28;1.67;;;12.70;99.90;;;;;;5051395;28;20258;-63
2023/06/02 02:20:27;;;;;;;2.85;1.70;;;12.70;99.90;;;;;;5050459;28;20278;-63
2023/06/02 02:22:55;;;;;;;0.80;0.80;;;12.80;99.90;;;;;;5051251;28;20215;-63
2023/06/02 02:25:23;;;;;;;1.27;1.05;;;12.70;99.90;;;;;;5050615;28;20212;-63
2023/06/02 02:27:51;;;;;;;1.17;0.77;;;12.60;99.90;;;;;;5051254;28;20239;-63
2023/06/02 02:30:20;;;;;;;1.60;1.17;;;12.60;99.90;;;;;;5050629;28;20232;-63
2023/06/02 02:32:48;;;;;;;1.65;1.55;;;12.70;99.90;;;;;;5050979;28;20222;-62
2023/06/02 02:35:16;;;;;;;1.35;1.08;;;12.60;99.90;;;;;;5050711;28;20566;-62
2023/06/02 02:37:44;;;;;;;1.27;1.17;;;12.60;99.90;;;;;;5051031;28;20612;-62
2023/06/02 02:40:15;;;;;;;1.10;0.80;;;12.60;99.90;;;;;;5050321;28;20234;-62
2023/06/02 02:42:43;;;;;;;0.90;0.80;;;12.70;99.90;;;;;;5042932;28;20203;-62
2023/06/02 02:45:11;;;;;;;1.55;1.30;;;12.80;99.90;;;;;;5050802;28;20683;-62
2023/06/02 02:47:40;;;;;;;1.75;1.40;;;12.70;99.90;;;;;;5050743;28;20204;-63
2023/06/02 02:50:09;;;;;;;1.48;1.38;;;12.70;99.90;;;;;;5048505;28;20219;-63
2023/06/02 02:52:38;;;;;;;1.70;1.10;;;12.60;99.90;;;;;;5050397;28;20615;-63
2023/06/02 02:55:07;;;;;;;2.08;1.40;;;12.60;99.90;;;;;;5050490;28;20211;-63
2023/06/02 02:57:34;;;;;;;1.20;1.10;;;12.80;99.90;;;;;;5050594;28;20208;-63
2023/06/02 03:00:04;;;;;;;1.50;1.20;;;12.80;99.90;;;;;;5050430;28;20270;-62
2023/06/02 03:02:32;;;;;;;0.80;0.80;;;12.80;99.90;;;;;;5050817;28;20218;-63
2023/06/02 03:05:02;;;;;;;1.35;0.75;;;12.70;99.90;;;;;;5050389;28;20215;-63
2023/06/02 03:07:31;;;;;;;1.60;1.27;;;12.80;99.90;;;;;;5048761;28;20253;-63
2023/06/02 03:09:59;;;;;;;0.98;0.88;;;12.70;99.90;;;;;;5050447;28;20227;-63
2023/06/02 03:12:27;;;;;;;1.95;1.00;;;12.60;99.90;;;;;;5050494;28;20203;-63
2023/06/02 03:14:55;;;;;;;2.20;1.20;;;12.60;99.90;;;;;;5050575;28;20222;-63
2023/06/02 03:17:23;;;;;;;1.73;1.30;;;12.50;99.90;;;;;;5050426;28;20215;-63
2023/06/02 03:19:51;;;;;;;1.13;1.02;;;12.40;99.90;;;;;;5049813;28;20698;-63
2023/06/02 03:22:20;;;;;;;1.15;1.05;;;12.30;99.90;;;;;;5048305;28;20207;-62
2023/06/02 03:24:48;;;;;;;1.35;1.15;;;12.20;99.90;;;;;;5050379;28;20211;-63
2023/06/02 03:27:36;;;;;;;0.90;0.70;;;12.10;99.90;;;;;;5050270;28;20624;-63
2023/06/02 03:30:06;;;;;;;1.35;1.20;;;12.40;99.90;;;;;;5050269;28;20231;-63
2023/06/02 03:32:34;;;;;;;0.80;0.77;;;12.50;99.90;;;;;;5050161;28;20208;-64
2023/06/02 03:35:02;;;;;;;1.52;1.42;;;12.50;99.90;;;;;;5050440;28;20203;-62
2023/06/02 03:37:31;;;;;;;1.40;1.25;;;12.40;99.90;;;;;;5050270;28;20242;-63
2023/06/02 03:39:59;;;;;;;1.42;1.00;;;12.40;99.90;;;;;;5048061;28;20236;-63
2023/06/02 03:42:27;;;;;;;1.00;0.90;;;12.50;99.90;;;;;;5050153;28;20685;-62
2023/06/02 03:44:55;;;;;;;1.17;1.08;;;12.70;99.90;;;;;;5050153;28;20211;-62
2023/06/02 03:47:23;;;;;;;1.50;1.33;;;12.60;99.90;;;;;;5050188;28;20204;-62
2023/06/02 03:49:51;;;;;;;1.10;1.00;;;12.70;99.90;;;;;;5050076;28;20204;-62
2023/06/02 03:52:18;;;;;;;1.00;0.80;;;12.60;99.90;;;;;;5052929;28;20227;-61
2023/06/02 03:54:49;;;;;;;2.28;1.33;;;12.50;99.90;;;;;;5045732;28;20199;-62
2023/06/02 03:57:17;;;;;;;1.70;1.60;;;12.50;99.90;;;;;;5051608;28;20693;-63
2023/06/02 03:59:45;;;;;;;1.92;1.70;;;12.60;99.90;;;;;;5053515;28;20204;-63
2023/06/02 04:02:13;;;;;;;1.08;0.98;;;12.50;99.90;;;;;;5053782;28;20250;-62
2023/06/02 04:04:41;;;;;;;1.65;1.55;;;12.40;99.90;;;;;;5053558;28;20212;-62
2023/06/02 04:07:09;;;;;;;1.50;1.40;;;12.40;99.90;;;;;;5053804;28;20212;-62
2023/06/02 04:09:37;;;;;;;2.10;1.67;;;12.40;99.90;;;;;;5053432;28;20266;-63
2023/06/02 04:12:07;;;;;;;1.55;1.33;;;12.30;99.90;;;;;;5053449;28;20204;-63
2023/06/02 04:14:36;;;;;;;1.33;1.23;;;12.10;99.90;;;;;;5050394;28;20212;-62
2023/06/02 04:17:05;;;;;;;1.30;1.05;;;12.30;99.90;;;;;;5050477;28;20208;-62
2023/06/02 04:19:33;;;;;;;1.02;0.95;;;12.30;99.90;;;;;;5057119;28;20203;-62
2023/06/02 04:22:01;;;;;;;1.20;1.10;;;12.30;99.90;;;;;;5053271;28;20236;-63
2023/06/02 04:24:29;;;;;;;1.10;1.00;;;12.40;99.90;;;;;;5052496;28;20231;-63
2023/06/02 04:26:57;;;;;;;1.77;1.00;;;12.50;99.90;;;;;;5053519;28;20218;-63
2023/06/02 04:29:28;;;;;;;1.40;1.30;;;12.60;99.90;;;;;;5053440;28;20212;-62
2023/06/02 04:31:55;;;;;;;1.15;1.05;;;12.60;99.90;;;;;;5050060;28;20578;-63
2023/06/02 04:34:23;;;;;;;1.20;1.10;;;12.60;99.90;;;;;;5052371;28;20225;-62
2023/06/02 04:36:51;;;;;;;1.40;1.30;;;12.50;99.90;;;;;;5052625;28;20207;-63
2023/06/02 04:39:20;;;;;;;1.00;1.00;;;12.50;99.90;;;;;;5053036;28;20211;-62
2023/06/02 04:41:49;;;;;;;1.40;1.10;;;12.50;99.90;;;;;;5052193;28;20223;-62
2023/06/02 04:44:17;;;;;;;1.70;1.27;;;12.50;99.90;;;;;;5052376;28;20215;-61
2023/06/02 04:46:46;;;;;;;1.35;1.25;;;12.40;99.90;;;;;;5052182;28;20211;-62
2023/06/02 04:49:14;;;;;;;1.25;1.00;;;12.40;99.90;;;;;;5049458;28;20204;-62
2023/06/02 04:51:42;;;;;;;2.88;1.45;;;12.40;99.90;;;;;;5049369;28;20232;-63
2023/06/02 04:54:10;;;;;;;1.33;1.23;;;12.40;99.90;;;;;;5046045;28;20200;-63
2023/06/02 04:56:38;;;;;;;1.35;1.25;;;12.40;99.90;;;;;;5050660;28;20257;-63
2023/06/02 04:59:06;;;;;;;1.33;1.23;;;12.40;99.90;;;;;;5052501;28;20689;-62
2023/06/02 05:01:34;;;;;;;1.60;1.40;;;12.50;99.90;;;;;;5051384;28;20643;-62
2023/06/02 05:04:04;;;;;;;1.40;1.20;;;12.60;99.90;;;;;;5051599;28;20235;-63
2023/06/02 05:06:32;;;;;;;1.33;1.20;;;12.60;99.90;;;;;;5049530;28;20204;-63
2023/06/02 05:09:02;;;;;;;2.28;1.17;;;12.70;99.90;;;;;;5052466;28;20593;-63
2023/06/02 05:11:30;;;;;;;1.70;1.60;;;12.70;99.90;;;;;;5051615;28;20224;-63
2023/06/02 05:13:58;;;;;;;2.85;1.38;;;12.80;99.90;;;;;;5051629;28;20219;-63
2023/06/02 05:16:28;;;;;;;1.35;1.25;;;12.70;99.90;;;;;;5044161;28;20219;-62
2023/06/02 05:18:56;;;;;;;1.27;1.17;;;12.70;99.90;;;;;;5057107;28;20283;-63
2023/06/02 05:21:25;;;;;;;1.20;1.10;;;12.70;99.90;;;;;;5048233;28;20236;-62
2023/06/02 05:23:53;;;;;;;1.10;1.00;;;12.70;99.90;;;;;;5051644;28;20301;-62
2023/06/02 05:26:21;;;;;;;1.23;0.80;;;12.70;99.90;;;;;;5051997;28;20641;-63
2023/06/02 05:28:50;;;;;;;1.33;1.00;;;12.70;99.90;;;;;;5051764;28;20226;-62
2023/06/02 05:31:18;;;;;;;3.28;1.40;;;12.80;99.90;;;;;;5051162;28;20716;-63
2023/06/02 05:33:46;;;;;;;3.03;1.50;;;12.90;99.90;;;;;;5051113;28;20214;-62
2023/06/02 05:36:14;;;;;;;1.70;1.60;;;13.00;99.90;;;;;;5056275;28;20334;-63
2023/06/02 05:38:45;;;;;;;2.22;1.40;;;13.10;99.90;;;;;;5047971;28;20209;-63
2023/06/02 05:41:12;;;;;;;1.55;1.45;;;13.10;99.90;;;;;;5051209;28;20227;-62
2023/06/02 05:43:40;;;;;;;1.35;1.25;;;13.10;99.90;;;;;;5051564;28;20215;-62
2023/06/02 05:46:08;;;;;;;1.58;1.48;;;13.10;99.90;;;;;;5051356;28;20690;-63
2023/06/02 05:48:36;;;;;;;1.70;1.60;;;13.10;99.90;;;;;;5049701;28;20211;-63
2023/06/02 05:51:04;;;;;;;1.23;1.02;;;13.20;99.90;;;;;;5049307;28;20293;-62
2023/06/02 05:53:32;;;;;;;1.02;0.93;;;13.30;99.90;;;;;;5051203;28;20580;-62
2023/06/02 05:56:01;;;;;;;2.58;1.80;;;13.40;99.90;;;;;;5050283;28;20575;-62
2023/06/02 05:58:31;;;;;;;2.67;1.10;;;13.60;99.90;;;;;;5051158;28;20291;-62
2023/06/02 06:00:59;;;;;;;1.10;0.90;;;13.70;99.90;;;;;;5050970;28;20223;-63
2023/06/02 06:03:27;;;;;;;1.30;1.00;;;13.70;99.90;;;;;;5051466;28;20212;-62
2023/06/02 06:05:55;;;;;;;1.25;1.15;;;13.80;99.90;;;;;;5048807;28;20202;-62
2023/06/02 06:08:22;;;;;;;1.42;1.33;;;13.80;99.90;;;;;;5050593;28;20211;-62
2023/06/02 06:10:50;;;;;;;0.88;0.88;;;13.80;99.90;;;;;;5051077;28;20240;-63
2023/06/02 06:13:20;;;;;;;1.00;0.90;;;13.90;99.90;;;;;;5050974;28;20671;-62
2023/06/02 06:15:48;;;;;;;1.20;1.10;;;13.90;99.90;;;;;;5050803;28;20206;-63
2023/06/02 06:18:16;;;;;;;1.45;1.15;;;14.00;99.90;;;;;;5051364;28;20671;-64
2023/06/02 06:20:45;;;;;;;0.80;0.80;;;13.90;99.90;;;;;;5050693;28;20618;-63
2023/06/02 06:23:13;;;;;;;1.60;1.33;;;13.90;99.90;;;;;;5051052;28;20274;-63
2023/06/02 06:25:41;;;;;;;1.65;1.38;;;14.00;99.90;;;;;;5051341;28;20608;-62
2023/06/02 06:28:09;;;;;;;1.42;1.25;;;14.10;99.90;;;;;;5051191;28;20211;-62
2023/06/02 06:30:39;;;;;;;2.33;0.90;;;14.00;99.90;;;;;;5049755;28;20223;-62
2023/06/02 06:33:08;;;;;;;1.05;0.90;;;14.20;99.90;;;;;;5050803;28;20200;-62
2023/06/02 06:35:36;;;;;;;1.25;1.15;;;14.30;99.90;;;;;;5050834;28;20200;-61
2023/06/02 06:38:04;;;;;;;1.73;1.45;;;14.30;99.90;;;;;;5051311;28;20222;-62
2023/06/02 06:40:32;;;;;;;1.00;0.90;;;14.40;99.90;;;;;;5050612;28;20234;-62
2023/06/02 06:43:00;;;;;;;2.30;1.30;;;14.50;99.90;;;;;;5050404;28;20215;-62
2023/06/02 06:45:49;;;;;;;1.48;1.27;;;14.70;99.90;;;;;;5050716;28;20278;-62
2023/06/02 06:48:17;;;;;;;1.98;1.20;;;14.80;99.90;;;;;;5050668;28;20204;-62
2023/06/02 06:50:45;;;;;;;1.00;0.90;;;14.60;99.90;;;;;;5050596;28;20228;-63
2023/06/02 06:53:13;;;;;;;1.00;0.85;;;14.50;99.90;;;;;;5050972;28;20203;-62
2023/06/02 06:55:41;;;;;;;1.55;1.27;;;14.50;99.90;;;;;;5050704;28;20210;-62
2023/06/02 06:58:09;;;;;;;0.98;0.90;;;14.60;99.90;;;;;;5050752;28;20253;-62
2023/06/02 07:00:37;;;;;;;1.40;1.30;;;14.60;99.90;;;;;;5050629;28;20297;-62
2023/06/02 07:03:07;;;;;;;1.10;1.00;;;14.60;99.90;;;;;;5050734;28;20590;-62
2023/06/02 07:05:35;;;;;;;1.17;1.10;;;14.60;99.90;;;;;;5050431;28;20571;-62
2023/06/02 07:08:03;;;;;;;0.70;0.60;;;14.70;99.90;;;;;;5050037;28;20204;-62
2023/06/02 07:10:31;;;;;;;1.17;1.08;;;15.00;99.90;;;;;;5050698;28;20285;-64
2023/06/02 07:12:59;;;;;;;0.93;0.70;;;15.10;99.90;;;;;;5050684;28;20196;-62
2023/06/02 07:15:27;;;;;;;1.85;1.15;;;15.10;99.90;;;;;;5050681;28;20208;-62
2023/06/02 07:17:55;;;;;;;0.95;0.80;;;15.00;99.90;;;;;;5050070;28;20200;-62
2023/06/02 07:20:25;;;;;;;1.20;1.10;;;14.90;99.90;;;;;;5050425;28;20706;-61
2023/06/02 07:22:53;;;;;;;1.27;1.17;;;15.00;99.90;;;;;;5050537;28;20250;-62
2023/06/02 07:25:21;;;;;;;1.13;0.80;;;15.10;99.90;;;;;;5052069;28;20200;-62
2023/06/02 07:27:49;;;;;;;1.10;1.00;;;15.00;99.90;;;;;;5054015;28;20659;-62
2023/06/02 07:30:17;;;;;;;1.20;1.10;;;15.00;99.90;;;;;;5054569;28;20224;-62
2023/06/02 07:32:45;;;;;;;1.33;1.15;;;15.20;99.90;;;;;;5054596;28;20211;-63
2023/06/02 07:35:13;;;;;;;0.90;0.80;;;15.30;99.90;;;;;;5054763;28;20615;-62
2023/06/02 07:37:42;;;;;;;0.70;0.70;;;15.00;99.90;;;;;;5053788;28;20197;-62
2023/06/02 07:40:10;;;;;;;1.50;0.98;;;14.90;99.90;;;;;;5054335;28;20227;-62
2023/06/02 07:42:39;;;;;;;1.35;1.25;;;15.10;99.90;;;;;;5054139;28;20307;-62
2023/06/02 07:45:08;;;;;;;1.65;1.10;;;15.10;99.90;;;;;;5054242;28;20386;-62
2023/06/02 07:47:35;;;;;;;0.77;0.77;;;15.30;99.90;;;;;;5054136;28;20204;-62
2023/06/02 07:50:04;;;;;;;1.15;0.90;;;15.40;99.90;;;;;;5054406;28;20224;-63
2023/06/02 07:52:31;;;;;;;0.90;0.70;;;15.60;99.90;;;;;;5054232;28;20215;-63
2023/06/02 07:55:01;;;;;;;1.30;0.98;;;15.60;99.90;;;;;;5054128;28;20207;-62
2023/06/02 07:57:29;;;;;;;1.25;1.05;;;15.80;99.90;;;;;;5053709;28;20200;-62
2023/06/02 07:59:57;;;;;;;1.90;0.88;;;15.80;99.90;;;;;;5053873;28;20206;-62
2023/06/02 08:02:24;;;;;;;1.40;1.27;;;16.00;99.90;;;;;;5053831;28;20227;-63
2023/06/02 08:04:52;;;;;;;0.80;0.75;;;16.00;99.90;;;;;;5054148;28;20207;-63
2023/06/02 08:07:20;;;;;;;2.33;1.10;;;16.20;99.90;;;;;;5053464;28;20203;-62
2023/06/02 08:09:48;;;;;;;1.55;1.45;;;16.40;99.90;;;;;;5053702;28;20200;-62
2023/06/02 08:12:18;;;;;;;1.23;0.98;;;16.60;99.90;;;;;;5053744;28;20671;-62
2023/06/02 08:14:46;;;;;;;1.05;0.85;;;16.60;99.90;;;;;;5053596;28;20740;-62
2023/06/02 08:17:13;;;;;;;1.45;0.80;;;16.70;99.90;;;;;;5053341;28;20208;-62
2023/06/02 08:19:41;;;;;;;0.80;0.80;;;16.70;99.90;;;;;;5053386;28;20200;-63
2023/06/02 08:22:10;;;;;;;1.00;0.90;;;16.80;99.90;;;;;;5033587;28;20204;-63
2023/06/02 08:24:38;;;;;;;1.73;0.90;;;16.90;99.90;;;;;;5033317;28;20205;-63
2023/06/02 08:27:08;;;;;;;1.30;1.20;;;16.60;99.90;;;;;;5033463;28;20579;-63
2023/06/02 08:29:37;;;;;;;0.80;0.80;;;16.60;99.90;;;;;;5033445;28;20208;-63
2023/06/02 08:32:05;;;;;;;0.95;0.70;;;16.50;99.90;;;;;;5033509;28;20208;-62
2023/06/02 08:34:36;;;;;;;1.00;0.90;;;16.60;99.90;;;;;;5033620;28;20564;-62
2023/06/02 08:37:05;;;;;;;0.60;0.60;;;16.60;99.90;;;;;;5032370;28;20207;-63
2023/06/02 08:39:32;;;;;;;1.00;0.90;;;16.70;99.90;;;;;;5033353;28;20567;-63
2023/06/02 08:42:03;;;;;;;1.90;1.05;;;16.90;99.90;;;;;;5025281;28;20224;-63
2023/06/02 08:44:31;;;;;;;0.75;0.75;;;17.00;99.90;;;;;;5033026;28;20717;-62
2023/06/02 08:47:01;;;;;;;0.98;0.70;;;17.20;99.90;;;;;;5033057;28;20566;-63
2023/06/02 08:49:30;;;;;;;1.00;0.70;;;17.20;99.90;;;;;;5033270;28;20208;-62
2023/06/02 08:52:04;;;;;;;0.75;0.70;;;17.40;99.90;;;;;;5032952;28;20224;-63
2023/06/02 08:54:33;;;;;;;0.60;0.60;;;17.70;99.90;;;;;;5033368;28;20201;-63
2023/06/02 08:57:04;;;;;;;0.75;0.75;;;18.00;99.90;;;;;;5032855;28;20205;-63
2023/06/02 08:59:32;;;;;;;0.90;0.90;;;18.10;99.90;;;;;;5033132;28;20209;-63
2023/06/02 09:02:02;;;;;;;1.02;0.93;;;18.30;99.90;;;;;;5032707;28;20221;-63
2023/06/02 09:04:30;;;;;;;0.80;0.70;;;18.40;99.90;;;;;;5032695;28;20628;-63
2023/06/02 09:07:22;;;;;;;1.25;1.15;;;18.50;99.90;;;;;;5032468;28;20288;-63
2023/06/02 09:09:52;;;;;;;0.98;0.70;;;18.60;99.90;;;;;;5032700;28;20209;-63
2023/06/02 09:12:22;;;;;;;1.23;0.50;;;18.90;99.90;;;;;;5032712;28;20721;-63
2023/06/02 09:15:07;;;;;;;6.20;0.73;;;19.00;99.90;;;;;;5032250;28;20197;-63
2023/06/02 09:17:38;;;;;;;0.70;0.60;;;19.20;99.90;;;;;;5032820;28;20200;-63
2023/06/02 09:20:10;;;;;;;0.90;0.88;;;19.20;99.90;;;;;;5027860;28;20240;-63
2023/06/02 09:22:53;;;;;;;0.73;0.70;;;19.00;99.90;;;;;;5052155;28;20406;-63
2023/06/02 09:25:24;;;;;;;0.70;0.60;;;19.20;99.90;;;;;;5052332;28;20205;-63
2023/06/02 09:27:52;;;;;;;0.60;0.50;;;19.50;99.90;;;;;;5052163;28;20208;-63
2023/06/02 09:30:21;;;;;;;0.82;0.80;;;19.50;99.90;;;;;;5052276;28;20585;-63
2023/06/02 09:32:57;;;;;;;1.45;0.93;;;19.40;99.90;;;;;;5052145;28;20576;-62
2023/06/02 09:35:36;;;;;;;0.80;0.60;;;19.30;99.90;;;;;;5052220;28;20211;-63
2023/06/02 09:38:07;;;;;;;0.60;0.40;;;19.30;99.90;;;;;;5052321;28;20252;-62
2023/06/02 09:40:35;;;;;;;1.30;0.70;;;19.70;99.90;;;;;;5052350;28;20221;-62
2023/06/02 09:43:05;;;;;;;1.33;1.02;;;19.90;99.90;;;;;;5051619;28;20208;-63
2023/06/02 09:45:33;;;;;;;0.70;0.60;;;20.00;99.90;;;;;;5051990;28;20200;-62
2023/06/02 09:48:03;;;;;;;0.73;0.50;;;20.10;99.90;;;;;;5051420;28;20640;-62
2023/06/02 09:50:33;;;;;;;0.60;0.50;;;19.90;99.50;;;;;;5051547;28;20225;-62
2023/06/02 09:53:04;;;;;;;0.70;0.63;;;19.90;99.80;;;;;;5051779;28;20658;-62
2023/06/02 09:55:34;;;;;;;0.60;0.50;;;20.30;99.70;;;;;;5051944;28;20209;-62
2023/06/02 09:58:02;;;;;;;3.33;1.00;;;20.10;99.80;;;;;;5051680;28;20204;-63
2023/06/02 10:00:30;;;;;;;0.80;0.70;;;20.30;99.60;;;;;;5051644;28;20228;-62
2023/06/02 10:02:59;;;;;;;0.80;0.68;;;20.30;99.50;;;;;;5051410;28;20232;-62
2023/06/02 10:05:29;;;;;;;1.10;0.68;;;20.60;99.40;;;;;;5051866;28;20219;-62
2023/06/02 10:08:08;;;;;;;0.70;0.60;;;20.70;99.30;;;;;;5050428;28;20209;-62
2023/06/02 10:10:49;;;;;;;0.60;0.50;;;20.70;98.70;;;;;;5051600;28;20223;-63
2023/06/02 10:13:34;;;;;;;0.77;0.60;;;20.90;98.50;;;;;;5044721;28;20258;-63
2023/06/02 10:16:26;;;;;;;0.80;0.80;;;20.80;97.40;;;;;;5051178;28;20208;-64
2023/06/02 10:19:24;;;;;;;0.70;0.60;;;20.90;98.10;;;;;;5051414;28;20245;-63
2023/06/02 10:22:12;;;;;;;0.70;0.50;;;21.00;96.80;;;;;;5146720;22;20231;-70
2023/06/02 10:24:51;;;;;;;0.80;0.50;;;20.90;98.00;;;;;;5070541;28;20306;-70
2023/06/02 10:27:27;;;;;;;0.60;0.45;;;21.20;97.50;;;;;;5057782;28;20204;-70
2023/06/02 10:29:56;;;;;;;0.60;0.57;;;21.20;97.60;;;;;;5071201;28;20211;-71
2023/06/02 10:32:25;;;;;;;0.63;0.50;;;20.90;97.20;;;;;;5090105;28;20276;-71
2023/06/02 10:34:55;;;;;;;0.70;0.70;;;20.90;96.90;;;;;;5090759;28;20207;-71
2023/06/02 10:37:26;;;;;;;0.80;0.60;;;21.00;97.10;;;;;;5073957;28;20209;-73
2023/06/02 10:39:54;;;;;;;0.73;0.73;;;20.90;97.00;;;;;;5080871;28;20212;-71
2023/06/02 10:42:24;;;;;;;1.30;0.60;;;21.00;97.00;;;;;;5091164;28;20605;-72
2023/06/02 10:44:54;;;;;;;0.80;0.73;;;21.10;97.00;;;;;;5090785;28;20220;-72
2023/06/02 10:47:38;;;;;;;0.70;0.57;;;21.10;97.00;;;;;;5091644;28;20206;-71
2023/06/02 10:50:09;;;;;;;0.57;0.43;;;20.90;96.90;;;;;;5091009;28;20207;-72
2023/06/02 10:53:09;;;;;;;0.50;0.40;;;21.00;97.10;;;;;;5091274;28;20226;-71
2023/06/02 10:55:40;;;;;;;0.73;0.60;;;21.30;96.70;;;;;;5082621;28;20206;-73
2023/06/02 10:58:12;;;;;;;0.60;0.50;;;21.30;95.70;;;;;;5091424;28;20206;-71
2023/06/02 11:00:44;;;;;;;0.60;0.50;;;21.30;96.30;;;;;;5090777;28;20230;-72
2023/06/02 11:03:34;;;;;;;0.82;0.60;;;21.30;96.10;;;;;;5075287;28;20199;-70
2023/06/02 11:06:19;;;;;;;0.77;0.60;;;21.70;96.30;;;;;;5084832;28;20553;-71
2023/06/02 11:08:51;;;;;;;0.75;0.60;;;21.90;95.70;;;;;;5070905;28;20204;-73
2023/06/02 11:11:54;;;;;;;0.60;0.50;;;21.70;95.30;;;;;;5090927;28;20292;-71
2023/06/02 11:14:22;;;;;;;1.25;0.50;;;21.80;96.80;;;;;;5077510;28;20203;-71
2023/06/02 11:17:28;;;;;;;1.25;0.60;;;21.80;95.50;;;;;;5090477;28;20208;-71
2023/06/02 11:19:57;;;;;;;0.80;0.60;;;22.00;95.90;;;;;;5090824;28;20207;-71
2023/06/02 11:22:25;;;;;;;0.65;0.55;;;22.10;95.40;;;;;;5090138;28;20232;-72
2023/06/02 11:24:56;;;;;;;0.90;0.70;;;22.50;95.60;;;;;;5090441;28;20223;-71
2023/06/02 11:27:38;;;;;;;0.70;0.60;;;22.80;94.70;;;;;;5090710;28;20208;-72
2023/06/02 11:30:09;;;;;;;0.70;0.60;;;22.80;93.70;;;;;;5090682;28;20569;-72
2023/06/02 11:32:38;;;;;;;0.73;0.73;;;22.30;94.50;;;;;;5090701;28;20689;-74
2023/06/02 11:35:08;;;;;;;0.75;0.75;;;22.80;94.40;;;;;;5090712;28;20207;-73
2023/06/02 11:37:38;;;;;;;0.60;0.60;;;22.60;93.00;;;;;;5071388;28;20219;-74
2023/06/02 11:40:10;;;;;;;0.60;0.60;;;22.40;93.90;;;;;;5081298;28;20209;-72
2023/06/02 11:42:40;;;;;;;1.20;0.85;;;22.50;93.40;;;;;;5090863;28;20224;-72
2023/06/02 11:45:20;;;;;;;1.05;0.77;;;22.70;93.50;;;;;;5090672;28;20217;-72
2023/06/02 11:47:56;;;;;;;0.60;0.50;;;22.80;93.40;;;;;;5090562;28;20200;-73
2023/06/02 11:50:24;;;;;;;0.70;0.50;;;22.50;92.90;;;;;;5090534;28;20272;-71
2023/06/02 11:52:52;;;;;;;0.70;0.60;;;22.20;93.30;;;;;;5090398;28;20238;-72
2023/06/02 11:55:25;;;;;;;0.70;0.50;;;22.40;93.80;;;;;;5090597;28;20218;-72
2023/06/02 11:57:54;;;;;;;0.60;0.50;;;22.10;92.80;;;;;;5090284;28;20207;-72
2023/06/02 12:00:22;;;;;;;1.13;0.57;;;22.50;92.80;;;;;;5090228;28;20258;-72
2023/06/02 12:02:52;;;;;;;0.60;0.40;;;22.90;93.30;;;;;;5090408;28;20213;-73
2023/06/02 12:05:34;;;;;;;0.60;0.40;;;23.00;92.50;;;;;;5090436;28;20246;-71
2023/06/02 12:08:10;;;;;;;0.70;0.60;;;23.20;92.00;;;;;;5063872;28;20293;-71
2023/06/02 12:10:40;;;;;;;0.60;0.50;;;23.20;92.10;;;;;;5069592;28;20225;-73
2023/06/02 12:13:08;;;;;;;1.02;0.50;;;23.40;92.70;;;;;;5072444;28;20220;-72
2023/06/02 12:15:37;;;;;;;1.52;0.88;;;23.30;91.30;;;;;;5073686;28;20271;-73
2023/06/02 12:18:07;;;;;;;0.95;0.73;;;23.60;91.90;;;;;;5074002;28;20213;-72
2023/06/02 12:20:42;;;;;;;0.95;0.80;;;23.30;90.20;;;;;;5072816;28;20221;-72
2023/06/02 12:23:10;;;;;;;0.60;0.40;;;23.30;91.30;;;;;;5073369;28;20204;-72
2023/06/02 12:25:40;;;;;;;0.70;0.70;;;23.50;90.80;;;;;;5073472;28;20704;-72
2023/06/02 12:28:12;;;;;;;0.90;0.60;;;23.50;89.60;;;;;;5073023;28;20216;-73
2023/06/02 12:30:41;;;;;;;0.70;0.50;;;23.30;89.30;;;;;;5073126;28;20221;-72
2023/06/02 12:33:11;;;;;;;0.60;0.50;;;23.10;89.50;;;;;;5073156;28;20206;-72
2023/06/02 12:35:39;;;;;;;0.70;0.50;;;22.90;88.40;;;;;;5072232;28;20675;-71
2023/06/02 12:38:09;;;;;;;0.80;0.60;;;22.90;89.40;;;;;;5071867;28;20669;-73
2023/06/02 12:40:38;;;;;;;0.70;0.60;;;22.80;90.10;;;;;;5087984;28;20733;-72
2023/06/02 12:43:07;;;;;;;1.95;0.47;;;22.60;90.30;;;;;;5093459;28;20208;-74
2023/06/02 12:45:35;;;;;;;0.70;0.50;;;22.90;90.00;;;;;;5093445;28;20216;-72
2023/06/02 12:48:04;;;;;;;0.95;0.73;;;23.30;89.70;;;;;;5093042;28;20295;-72
2023/06/02 12:50:32;;;;;;;0.70;0.50;;;23.30;89.10;;;;;;5093018;28;20265;-72
2023/06/02 12:53:00;;;;;;;1.20;0.70;;;23.70;88.70;;;;;;5093245;28;20208;-72
2023/06/02 12:55:30;;;;;;;2.30;0.73;;;24.10;85.80;;;;;;5093289;28;20196;-72
2023/06/02 12:57:58;;;;;;;0.90;0.70;;;24.40;86.40;;;;;;5092972;28;20220;-73
2023/06/02 13:00:27;;;;;;;1.20;0.50;;;24.20;84.60;;;;;;5092722;28;20201;-72
2023/06/02 13:02:55;;;;;;;1.08;0.70;;;24.00;84.50;;;;;;5092903;28;20217;-73